Time;durP1;ratioP1;P1;durP2;ratioP2;P2;SDS_P1;SDS_P2;PMS_P1;PMS_P2;Temp;Humidity;BMP_temperature;BMP_pressure;BME280_temperature;BME280_humidity;BME280_pressure;Samples;Min_cycle;Max_cycle;Signal;HPM_P1;HPM_P2
2024/04/04 04:01:06;;;;;;;12.57;3.20;;;9.90;99.90;;;;;;5695233;22;20304;-75
2024/04/04 04:03:31;;;;;;;5.45;3.08;;;9.90;99.90;;;;;;5007167;28;20218;-77
2024/04/04 04:05:58;;;;;;;2.03;1.97;;;9.90;99.90;;;;;;5011539;28;20195;-74
2024/04/04 04:08:24;;;;;;;3.05;2.85;;;9.90;99.90;;;;;;5016907;28;20673;-76
2024/04/04 04:10:50;;;;;;;3.70;2.23;;;9.90;99.90;;;;;;5011206;28;20230;-76
2024/04/04 04:13:16;;;;;;;2.85;2.65;;;9.90;99.90;;;;;;4995919;28;20215;-75
2024/04/04 04:15:43;;;;;;;2.47;1.97;;;9.80;99.90;;;;;;4996464;28;20287;-76
2024/04/04 04:18:10;;;;;;;2.90;2.70;;;9.80;99.90;;;;;;4996079;28;20545;-77
2024/04/04 04:23:22;;;;;;;3.25;2.50;;;9.70;99.90;;;;;;4994913;28;20246;-75
2024/04/04 04:25:48;;;;;;;1.65;1.55;;;9.70;99.90;;;;;;4994865;28;20650;-76
2024/04/04 04:28:14;;;;;;;3.45;2.00;;;9.60;99.90;;;;;;4997363;28;20208;-75
2024/04/04 04:30:41;;;;;;;1.53;1.53;;;9.60;99.90;;;;;;4987128;28;20242;-76
2024/04/04 04:33:07;;;;;;;3.35;1.70;;;9.50;99.90;;;;;;4989760;28;20728;-75
2024/04/04 04:35:36;;;;;;;8.60;2.00;;;9.50;99.90;;;;;;4992625;28;20201;-75
2024/04/04 04:38:02;;;;;;;3.08;1.63;;;9.50;99.90;;;;;;4988610;28;20299;-77
2024/04/04 04:40:28;;;;;;;1.73;1.63;;;9.40;99.90;;;;;;4993580;28;20639;-76
2024/04/04 04:42:54;;;;;;;2.95;2.13;;;9.30;99.90;;;;;;4977688;28;20220;-75
2024/04/04 04:45:21;;;;;;;3.10;1.23;;;9.20;99.90;;;;;;4982766;28;20200;-76
2024/04/04 04:47:47;;;;;;;7.72;2.05;;;9.10;99.90;;;;;;4981477;28;20207;-76
2024/04/04 04:50:13;;;;;;;1.73;1.73;;;9.00;99.90;;;;;;4992107;28;20246;-77
2024/04/04 04:52:40;;;;;;;1.17;1.17;;;9.00;99.90;;;;;;4994648;28;20231;-77
2024/04/04 04:55:07;;;;;;;0.93;0.93;;;8.90;99.90;;;;;;4996583;28;20312;-76
2024/04/04 04:57:33;;;;;;;1.75;1.42;;;8.80;99.90;;;;;;4997353;28;20204;-76
2024/04/04 04:59:59;;;;;;;1.37;1.27;;;8.80;99.90;;;;;;4995368;28;20546;-75
2024/04/04 05:02:25;;;;;;;1.40;1.35;;;8.80;99.90;;;;;;4991756;28;20240;-76
2024/04/04 05:04:52;;;;;;;1.20;1.20;;;8.70;99.90;;;;;;4984359;28;20212;-76
2024/04/04 05:07:18;;;;;;;1.58;1.42;;;8.60;99.90;;;;;;4985572;28;20671;-76
2024/04/04 05:09:47;;;;;;;3.40;1.47;;;8.60;99.90;;;;;;4984225;28;20211;-75
2024/04/04 05:12:13;;;;;;;1.13;1.13;;;8.60;99.90;;;;;;4982155;28;20491;-74
2024/04/04 05:14:40;;;;;;;7.70;1.87;;;8.60;99.90;;;;;;4985600;28;20264;-76
2024/04/04 05:17:06;;;;;;;1.95;1.00;;;8.70;99.90;;;;;;4985284;28;20208;-76
2024/04/04 05:19:32;;;;;;;0.90;0.90;;;8.70;99.90;;;;;;4985023;28;20207;-76
2024/04/04 05:21:58;;;;;;;9.02;1.45;;;8.70;99.90;;;;;;4986008;28;20510;-75
2024/04/04 05:24:25;;;;;;;2.40;1.23;;;8.70;99.90;;;;;;4985329;28;20534;-73
2024/04/04 05:26:52;;;;;;;1.63;1.52;;;8.70;99.90;;;;;;4988749;28;20222;-76
2024/04/04 05:29:18;;;;;;;2.42;1.17;;;8.80;99.90;;;;;;4992149;28;20707;-75
2024/04/04 05:31:44;;;;;;;2.45;1.33;;;8.90;99.90;;;;;;4986677;28;20243;-76
2024/04/04 05:34:12;;;;;;;1.33;1.20;;;9.00;99.90;;;;;;4986423;28;20556;-76
2024/04/04 05:36:38;;;;;;;4.47;1.60;;;9.10;99.90;;;;;;4992281;28;20220;-73
2024/04/04 05:39:07;;;;;;;4.00;1.70;;;9.30;99.90;;;;;;4988515;28;20239;-76
2024/04/04 05:41:33;;;;;;;8.00;1.73;;;9.50;99.90;;;;;;4988674;28;20236;-76
2024/04/04 05:44:02;;;;;;;3.83;1.35;;;9.70;99.90;;;;;;4982371;28;20218;-75
2024/04/04 05:46:27;;;;;;;3.92;3.13;;;9.70;99.90;;;;;;4981924;28;20204;-76
2024/04/04 05:48:54;;;;;;;6.90;4.90;;;9.60;99.90;;;;;;4982366;28;20627;-75
2024/04/04 05:51:20;;;;;;;7.15;4.18;;;9.60;99.90;;;;;;4982701;28;20239;-74
2024/04/04 05:53:46;;;;;;;23.37;14.17;;;9.60;99.90;;;;;;4983667;28;20239;-75
2024/04/04 05:56:12;;;;;;;11.63;7.40;;;9.60;99.90;;;;;;4978361;28;20249;-74
2024/04/04 05:58:39;;;;;;;20.60;12.97;;;9.60;99.90;;;;;;4987175;28;20212;-73
2024/04/04 06:01:06;;;;;;;7.13;4.93;;;9.70;99.90;;;;;;4982353;28;20231;-74
2024/04/04 06:03:34;;;;;;;24.05;12.02;;;9.80;99.90;;;;;;4977992;28;20219;-74
2024/04/04 06:06:01;;;;;;;18.77;10.02;;;9.70;99.90;;;;;;4976725;28;20219;-73
2024/04/04 06:08:27;;;;;;;15.55;7.47;;;9.70;99.90;;;;;;4975984;28;20612;-74
2024/04/04 06:10:53;;;;;;;3.63;3.30;;;9.70;99.90;;;;;;4981073;28;20229;-74
2024/04/04 06:13:20;;;;;;;1.77;1.60;;;9.70;99.90;;;;;;4983086;28;20314;-74
2024/04/04 06:15:52;;;;;;;3.92;3.00;;;9.70;99.90;;;;;;4975683;28;20207;-75
2024/04/04 06:18:20;;;;;;;13.68;6.22;;;9.60;99.90;;;;;;4976516;28;20204;-74
2024/04/04 06:20:46;;;;;;;5.03;3.53;;;9.70;99.90;;;;;;4981483;28;20251;-74
2024/04/04 06:23:12;;;;;;;4.43;2.10;;;9.80;99.90;;;;;;4979482;28;20205;-71
2024/04/04 06:25:39;;;;;;;11.18;7.93;;;9.80;99.90;;;;;;4977481;28;20478;-74
2024/04/04 06:28:05;;;;;;;3.83;2.80;;;9.90;99.90;;;;;;4979673;28;20212;-75
2024/04/04 06:30:33;;;;;;;2.20;2.10;;;9.90;99.90;;;;;;4982959;28;20322;-73
2024/04/04 06:32:59;;;;;;;6.32;3.22;;;10.00;99.90;;;;;;4981760;28;20238;-74
2024/04/04 06:35:27;;;;;;;5.23;4.43;;;10.10;99.90;;;;;;4979639;28;20201;-73
2024/04/04 06:37:52;;;;;;;2.58;2.38;;;10.10;99.90;;;;;;4984447;28;20227;-72
2024/04/04 06:40:19;;;;;;;2.53;2.17;;;10.20;99.90;;;;;;4987997;28;20214;-74
2024/04/04 06:42:46;;;;;;;2.25;2.15;;;10.30;99.90;;;;;;4977125;28;20219;-73
2024/04/04 06:45:12;;;;;;;5.50;5.13;;;10.40;99.90;;;;;;4974249;28;20208;-74
2024/04/04 06:47:40;;;;;;;2.53;2.43;;;10.60;99.90;;;;;;4977450;28;20579;-74
2024/04/04 06:50:07;;;;;;;1.60;1.40;;;10.80;99.90;;;;;;4976476;28;20500;-73
2024/04/04 06:52:34;;;;;;;2.87;2.77;;;10.90;99.90;;;;;;4976748;28;20494;-73
2024/04/04 06:55:02;;;;;;;3.23;3.13;;;11.00;99.90;;;;;;4978065;28;20492;-74
2024/04/04 06:57:28;;;;;;;1.97;1.97;;;11.10;99.90;;;;;;4980904;28;20470;-74
2024/04/04 06:59:55;;;;;;;2.13;2.03;;;11.00;99.90;;;;;;4977780;28;20478;-74
2024/04/04 07:02:21;;;;;;;2.67;2.47;;;11.00;99.90;;;;;;4977973;28;20284;-74
2024/04/04 07:04:47;;;;;;;1.90;1.53;;;11.00;99.90;;;;;;4984857;28;20471;-74
2024/04/04 07:07:13;;;;;;;2.17;1.80;;;11.00;99.90;;;;;;4982199;28;20215;-74
2024/04/04 07:09:41;;;;;;;1.23;1.20;;;11.00;99.90;;;;;;4981187;28;20988;-74
2024/04/04 07:12:07;;;;;;;1.33;1.23;;;11.10;99.90;;;;;;4983507;28;20498;-74
2024/04/04 07:14:35;;;;;;;2.03;1.43;;;11.10;99.90;;;;;;4980871;28;20464;-75
2024/04/04 07:17:01;;;;;;;0.70;0.70;;;11.10;99.90;;;;;;4987885;28;20204;-74
2024/04/04 07:19:28;;;;;;;2.20;1.47;;;11.10;99.90;;;;;;4984037;28;20601;-75
2024/04/04 07:21:53;;;;;;;1.07;1.07;;;11.10;99.90;;;;;;4978774;28;20567;-73
2024/04/04 07:24:20;;;;;;;1.93;1.77;;;11.10;99.90;;;;;;4988584;28;20466;-73
2024/04/04 07:26:48;;;;;;;2.20;1.07;;;11.10;99.90;;;;;;4988898;28;20216;-73
2024/04/04 07:29:15;;;;;;;2.87;2.00;;;11.10;99.90;;;;;;4989240;28;20467;-73
2024/04/04 07:31:41;;;;;;;1.00;0.50;;;11.10;99.90;;;;;;4980877;28;20489;-73
2024/04/04 07:34:08;;;;;;;0.93;0.60;;;11.10;99.90;;;;;;4991028;28;20463;-74
2024/04/04 07:36:33;;;;;;;0.87;0.60;;;11.10;99.90;;;;;;4991761;28;20475;-74
2024/04/04 07:39:00;;;;;;;1.03;1.00;;;11.10;99.90;;;;;;4995105;28;20458;-74
2024/04/04 07:41:26;;;;;;;1.10;0.87;;;11.10;99.90;;;;;;4994562;28;20219;-72
2024/04/04 07:43:54;;;;;;;0.93;0.93;;;11.20;99.90;;;;;;4988969;28;20465;-74
2024/04/04 07:46:19;;;;;;;1.13;0.63;;;11.30;99.90;;;;;;4994671;28;20208;-74
2024/04/04 07:48:46;;;;;;;0.70;0.70;;;11.30;99.90;;;;;;4992551;28;20573;-75
2024/04/04 07:51:13;;;;;;;5.40;1.63;;;11.20;99.90;;;;;;4988401;28;20228;-74
2024/04/04 07:53:40;;;;;;;0.97;0.90;;;11.20;99.90;;;;;;4990479;28;20483;-75
2024/04/04 07:56:08;;;;;;;0.50;0.50;;;11.20;99.90;;;;;;4983213;28;20472;-74
2024/04/04 07:58:34;;;;;;;2.33;0.70;;;11.20;99.90;;;;;;4984626;28;20603;-73
2024/04/04 08:01:02;;;;;;;4.80;1.10;;;11.20;99.90;;;;;;4985900;28;20553;-73
2024/04/04 08:03:31;;;;;;;0.53;0.53;;;11.20;99.90;;;;;;4981661;28;20842;-74
2024/04/04 08:05:57;;;;;;;1.33;0.83;;;11.40;99.90;;;;;;4985189;28;20476;-74
2024/04/04 08:08:24;;;;;;;0.70;0.70;;;11.50;99.90;;;;;;4992156;28;20836;-75
2024/04/04 08:10:50;;;;;;;1.60;0.70;;;11.70;99.90;;;;;;4984284;28;20232;-74
2024/04/04 08:13:16;;;;;;;1.60;0.90;;;11.80;99.90;;;;;;4978344;28;20506;-73
2024/04/04 08:15:42;;;;;;;2.67;0.67;;;11.90;99.90;;;;;;4977972;28;20674;-73
2024/04/04 08:18:10;;;;;;;0.70;0.70;;;11.90;99.90;;;;;;4986383;28;20475;-74
2024/04/04 08:20:36;;;;;;;0.63;0.63;;;11.80;99.90;;;;;;4980955;28;20227;-74
2024/04/04 08:23:06;;;;;;;5.90;1.10;;;11.70;99.90;;;;;;4982875;28;20459;-73
2024/04/04 08:25:31;;;;;;;1.70;1.67;;;11.50;99.90;;;;;;4983258;28;20205;-73
2024/04/04 08:27:58;;;;;;;1.00;1.00;;;11.40;99.90;;;;;;4978449;28;20466;-73
2024/04/04 08:30:24;;;;;;;2.37;2.20;;;11.30;99.90;;;;;;4977059;28;20207;-73
2024/04/04 08:32:51;;;;;;;1.13;1.13;;;11.20;99.90;;;;;;4987604;28;21500;-73
2024/04/04 08:35:18;;;;;;;1.87;1.80;;;11.20;99.90;;;;;;4980788;28;20668;-73
2024/04/04 08:37:45;;;;;;;3.13;1.43;;;11.30;99.90;;;;;;4988236;28;20474;-73
2024/04/04 08:40:11;;;;;;;0.90;0.90;;;11.30;99.90;;;;;;4986801;28;21054;-73
2024/04/04 08:42:38;;;;;;;0.73;0.63;;;11.30;99.90;;;;;;4987872;28;20514;-73
2024/04/04 08:45:08;;;;;;;0.70;0.70;;;11.40;99.90;;;;;;4986879;28;20298;-73
2024/04/04 08:47:36;;;;;;;0.90;0.90;;;11.40;99.90;;;;;;4986493;28;20467;-74
2024/04/04 08:50:03;;;;;;;1.53;0.93;;;11.50;99.90;;;;;;4981665;28;20475;-74
2024/04/04 08:52:32;;;;;;;0.80;0.80;;;11.50;99.90;;;;;;4986638;28;20517;-74
2024/04/04 08:54:58;;;;;;;3.83;1.00;;;11.50;99.90;;;;;;4989303;28;20476;-75
2024/04/04 08:57:26;;;;;;;0.73;0.73;;;11.60;99.90;;;;;;4986195;28;20837;-74
2024/04/04 08:59:55;;;;;;;0.67;0.67;;;11.50;99.90;;;;;;4982431;28;20227;-74
2024/04/04 09:02:22;;;;;;;0.67;0.67;;;11.50;99.90;;;;;;4981872;28;20483;-73
2024/04/04 09:04:48;;;;;;;0.90;0.80;;;11.50;99.90;;;;;;4985639;28;20467;-74
2024/04/04 09:07:14;;;;;;;0.67;0.67;;;11.60;99.90;;;;;;4983438;28;20518;-74
2024/04/04 09:09:45;;;;;;;2.27;2.10;;;11.60;99.90;;;;;;4981134;28;20666;-74
2024/04/04 09:12:14;;;;;;;3.77;3.37;;;11.70;99.90;;;;;;4979958;28;20502;-74
2024/04/04 09:14:40;;;;;;;2.40;2.10;;;11.70;99.90;;;;;;4983644;28;20545;-74
2024/04/04 09:17:07;;;;;;;2.40;2.20;;;11.80;99.90;;;;;;4989071;28;20463;-74
2024/04/04 09:19:33;;;;;;;2.10;2.00;;;11.90;99.90;;;;;;4985728;28;20211;-74
2024/04/04 09:22:00;;;;;;;2.63;1.70;;;11.90;99.90;;;;;;4985830;28;20585;-75
2024/04/04 09:24:25;;;;;;;2.00;1.90;;;11.80;99.90;;;;;;4982186;28;20232;-73
2024/04/04 09:26:53;;;;;;;4.80;1.90;;;11.80;99.90;;;;;;4979111;28;20466;-74
2024/04/04 09:29:21;;;;;;;1.10;0.87;;;11.60;99.90;;;;;;4980501;28;20694;-74
2024/04/04 09:31:49;;;;;;;2.23;1.30;;;11.70;99.90;;;;;;4981667;28;20569;-74
2024/04/04 09:34:17;;;;;;;3.75;1.70;;;11.70;99.90;;;;;;4979701;28;20499;-74
2024/04/04 09:36:45;;;;;;;1.07;1.07;;;11.60;99.90;;;;;;4981764;28;20216;-74
2024/04/04 09:39:19;;;;;;;2.10;1.13;;;11.50;99.90;;;;;;4988796;28;20475;-74
2024/04/04 09:41:49;;;;;;;2.97;1.55;;;11.40;99.90;;;;;;4980360;28;20224;-74
2024/04/04 09:44:16;;;;;;;4.00;1.67;;;11.30;99.90;;;;;;4986110;28;20212;-74
2024/04/04 09:46:44;;;;;;;1.00;1.00;;;11.30;99.90;;;;;;4983433;28;20571;-74
2024/04/04 09:49:12;;;;;;;1.15;1.15;;;11.10;99.90;;;;;;4986156;28;20215;-74
2024/04/04 09:51:42;;;;;;;1.77;1.20;;;11.00;99.90;;;;;;4980418;28;20315;-73
2024/04/04 09:54:09;;;;;;;2.15;1.23;;;10.90;99.90;;;;;;4981271;28;20228;-74
2024/04/04 09:56:36;;;;;;;2.17;1.10;;;10.90;99.90;;;;;;4984992;28;20274;-74
2024/04/04 09:59:02;;;;;;;1.95;1.02;;;10.90;99.90;;;;;;4980470;28;20212;-71
2024/04/04 10:01:30;;;;;;;2.30;1.53;;;10.90;99.90;;;;;;4978088;28;20231;-74
2024/04/04 10:03:59;;;;;;;1.27;1.27;;;10.90;99.90;;;;;;4985779;28;20608;-74
2024/04/04 10:06:33;;;;;;;1.05;1.05;;;10.90;99.90;;;;;;4981588;28;20658;-73
2024/04/04 10:09:00;;;;;;;2.25;2.05;;;10.80;99.90;;;;;;4980584;28;20343;-73
2024/04/04 10:11:30;;;;;;;1.33;1.33;;;10.80;99.90;;;;;;4983936;28;20243;-73
2024/04/04 10:14:00;;;;;;;1.70;1.60;;;10.70;99.90;;;;;;4984694;28;20228;-73
2024/04/04 10:16:38;;;;;;;1.23;1.23;;;10.80;99.90;;;;;;4982445;28;20672;-73
2024/04/04 10:19:09;;;;;;;1.90;1.80;;;10.70;99.90;;;;;;4982764;28;20254;-74
2024/04/04 10:21:36;;;;;;;4.57;2.72;;;10.80;99.90;;;;;;4983587;28;20219;-72
2024/04/04 10:24:02;;;;;;;1.13;0.90;;;10.70;99.90;;;;;;4980544;28;20635;-72
2024/04/04 10:26:30;;;;;;;2.40;0.80;;;10.80;99.90;;;;;;4985978;28;20207;-73
2024/04/04 10:28:56;;;;;;;2.00;1.90;;;10.80;99.90;;;;;;4988043;28;20218;-72
2024/04/04 10:31:23;;;;;;;2.88;1.38;;;10.80;99.90;;;;;;4980958;28;20699;-73
2024/04/04 10:34:00;;;;;;;1.45;1.25;;;10.80;99.90;;;;;;4983959;28;20223;-73
2024/04/04 10:36:38;;;;;;;1.90;1.73;;;10.90;99.90;;;;;;4982134;28;20211;-73
2024/04/04 10:39:06;;;;;;;2.97;0.60;;;10.90;99.90;;;;;;4985645;28;20211;-72
2024/04/04 10:41:33;;;;;;;0.93;0.93;;;10.80;99.90;;;;;;4980573;28;20228;-72
2024/04/04 10:43:58;;;;;;;2.03;1.98;;;10.80;99.90;;;;;;4985715;28;20288;-73
2024/04/04 10:46:25;;;;;;;1.97;1.87;;;10.90;99.90;;;;;;4988076;28;20219;-73
2024/04/04 10:48:52;;;;;;;2.38;2.17;;;10.90;99.90;;;;;;4986751;28;20225;-72
2024/04/04 10:51:19;;;;;;;1.02;1.02;;;10.90;99.90;;;;;;4982660;28;20228;-73
2024/04/04 10:53:45;;;;;;;1.63;1.50;;;10.90;99.90;;;;;;4980705;28;20812;-72
2024/04/04 10:56:12;;;;;;;1.73;1.40;;;10.90;99.90;;;;;;4981949;28;20204;-74
2024/04/04 10:58:38;;;;;;;9.23;7.95;;;10.90;99.90;;;;;;4981018;28;20215;-71
2024/04/04 11:01:05;;;;;;;3.28;2.92;;;11.00;99.90;;;;;;4986040;28;20238;-73
2024/04/04 11:03:32;;;;;;;3.75;3.40;;;11.00;99.90;;;;;;4989507;28;20211;-72
2024/04/04 11:06:00;;;;;;;1.98;1.95;;;11.10;99.90;;;;;;4987382;28;20196;-73
2024/04/04 11:08:27;;;;;;;2.97;2.87;;;11.20;99.90;;;;;;4984386;28;20219;-72
2024/04/04 11:10:53;;;;;;;6.63;5.43;;;11.20;99.90;;;;;;4989872;28;20577;-73
2024/04/04 11:13:20;;;;;;;3.50;3.20;;;11.30;99.90;;;;;;4987898;28;20621;-73
2024/04/04 11:15:45;;;;;;;3.23;2.90;;;11.30;99.90;;;;;;4991136;28;20283;-72
2024/04/04 11:18:13;;;;;;;8.13;5.30;;;11.30;99.90;;;;;;4987192;28;20961;-73
2024/04/04 11:20:38;;;;;;;3.40;3.20;;;11.30;99.90;;;;;;4985223;28;20230;-73
2024/04/04 11:23:06;;;;;;;2.20;2.00;;;11.30;99.90;;;;;;4990653;28;20470;-74
2024/04/04 11:25:32;;;;;;;3.25;3.05;;;11.40;99.90;;;;;;4989483;28;20208;-73
2024/04/04 11:27:59;;;;;;;5.43;4.97;;;11.40;99.90;;;;;;4985534;28;20215;-71
2024/04/04 11:30:25;;;;;;;3.20;2.73;;;11.50;99.90;;;;;;4987327;28;20215;-72
2024/04/04 11:32:52;;;;;;;9.13;6.33;;;11.60;99.90;;;;;;4983922;28;20495;-72
2024/04/04 11:35:18;;;;;;;11.13;5.87;;;11.60;99.90;;;;;;4986712;28;20497;-71
2024/04/04 11:37:45;;;;;;;7.50;5.93;;;11.70;99.90;;;;;;4989884;28;20470;-71
2024/04/04 11:40:13;;;;;;;4.23;3.23;;;11.70;99.90;;;;;;4986280;28;20290;-71
2024/04/04 11:42:40;;;;;;;13.97;7.97;;;11.60;99.90;;;;;;4985160;28;20989;-71
2024/04/04 11:45:06;;;;;;;7.90;6.53;;;11.50;99.90;;;;;;4987395;28;21084;-72
2024/04/04 11:47:33;;;;;;;7.63;5.27;;;11.50;99.90;;;;;;4989430;28;20986;-72
2024/04/04 11:49:59;;;;;;;4.83;2.70;;;11.50;99.90;;;;;;4987973;28;20478;-71
2024/04/04 11:52:27;;;;;;;5.63;5.10;;;11.50;99.90;;;;;;4988680;28;20969;-71
2024/04/04 11:54:53;;;;;;;3.03;2.67;;;11.50;99.90;;;;;;4988271;28;20239;-71
2024/04/04 11:57:23;;;;;;;1.77;1.77;;;11.60;99.90;;;;;;4990220;28;21779;-72
2024/04/04 11:59:49;;;;;;;2.20;2.00;;;11.60;99.90;;;;;;4990709;28;20246;-71
2024/04/04 12:02:16;;;;;;;3.50;3.20;;;11.70;99.90;;;;;;4982144;28;20581;-71
2024/04/04 12:04:42;;;;;;;1.57;1.40;;;11.70;99.90;;;;;;4988438;28;20207;-72
2024/04/04 12:07:08;;;;;;;4.73;4.33;;;11.60;99.90;;;;;;4988443;28;20482;-71
2024/04/04 12:09:34;;;;;;;10.43;9.27;;;11.60;99.90;;;;;;4984612;28;20468;-73
2024/04/04 12:12:01;;;;;;;5.23;4.93;;;11.60;99.90;;;;;;4985642;28;20505;-73
2024/04/04 12:14:28;;;;;;;2.77;2.67;;;11.60;99.90;;;;;;4985109;28;20231;-74
2024/04/04 12:16:55;;;;;;;2.47;2.37;;;11.70;99.90;;;;;;4983982;28;20495;-74
2024/04/04 12:19:26;;;;;;;4.83;4.40;;;11.60;99.90;;;;;;4984113;28;21327;-73
2024/04/04 12:21:54;;;;;;;3.07;2.83;;;11.70;99.90;;;;;;4985681;28;20486;-74
2024/04/04 12:24:20;;;;;;;1.33;1.33;;;11.80;99.90;;;;;;4980809;28;20484;-73
2024/04/04 12:26:47;;;;;;;2.23;2.07;;;11.90;99.90;;;;;;4984745;28;20478;-74
2024/04/04 12:29:16;;;;;;;2.00;1.90;;;12.00;99.90;;;;;;4985627;28;20462;-75
2024/04/04 12:31:43;;;;;;;1.63;1.63;;;12.10;99.90;;;;;;4979772;28;20484;-75
2024/04/04 12:34:10;;;;;;;2.40;2.20;;;12.10;99.90;;;;;;4983709;28;20575;-73
2024/04/04 12:36:36;;;;;;;4.30;3.50;;;12.20;99.90;;;;;;4984567;28;20466;-74
2024/04/04 12:39:08;;;;;;;3.63;3.40;;;12.30;99.90;;;;;;5024950;23;21063;-75
2024/04/04 12:41:33;;;;;;;3.87;3.07;;;12.40;99.90;;;;;;5009393;28;20270;-75
2024/04/04 12:44:00;;;;;;;3.50;3.30;;;12.50;99.90;;;;;;5014092;28;20462;-75
2024/04/04 12:46:28;;;;;;;2.67;2.53;;;12.50;99.90;;;;;;5011730;28;20208;-75
2024/04/04 12:48:59;;;;;;;5.30;4.20;;;12.50;99.90;;;;;;5011643;28;20506;-75
2024/04/04 12:51:25;;;;;;;2.70;2.60;;;12.60;99.90;;;;;;5011808;28;20473;-74
2024/04/04 12:53:52;;;;;;;3.50;3.23;;;12.70;99.90;;;;;;5009915;28;20548;-72
2024/04/04 12:56:17;;;;;;;2.67;2.57;;;12.80;99.90;;;;;;5008043;28;20466;-72
2024/04/04 12:58:44;;;;;;;4.50;4.20;;;12.90;99.90;;;;;;5009235;28;20509;-72
2024/04/04 13:01:10;;;;;;;3.87;3.53;;;13.00;99.90;;;;;;5011081;28;20560;-73
2024/04/04 13:03:37;;;;;;;5.00;4.60;;;13.10;99.90;;;;;;5010789;28;20458;-72
2024/04/04 13:06:04;;;;;;;6.30;5.80;;;13.10;99.90;;;;;;5010852;28;20466;-72
2024/04/04 13:08:32;;;;;;;8.40;7.50;;;13.10;99.90;;;;;;5008971;28;20497;-72
2024/04/04 13:10:58;;;;;;;1.63;1.63;;;13.20;99.90;;;;;;5004966;28;20818;-72
2024/04/04 13:13:25;;;;;;;1.53;1.43;;;13.20;99.90;;;;;;5010691;28;20540;-73
2024/04/04 13:15:50;;;;;;;2.97;2.77;;;13.20;99.90;;;;;;5009583;28;20214;-75
2024/04/04 13:18:17;;;;;;;2.27;2.03;;;13.20;99.90;;;;;;5009906;28;20850;-72
2024/04/04 13:20:43;;;;;;;3.67;3.57;;;13.20;99.90;;;;;;5010791;28;20199;-76
2024/04/04 13:23:11;;;;;;;1.60;1.60;;;13.20;99.90;;;;;;5010457;28;20473;-75
2024/04/04 13:25:37;;;;;;;1.20;1.20;;;13.20;99.90;;;;;;5007919;28;20657;-75
2024/04/04 13:28:05;;;;;;;1.20;1.20;;;13.10;99.90;;;;;;5005530;28;20500;-75
2024/04/04 13:30:31;;;;;;;1.23;1.23;;;13.10;99.90;;;;;;5012924;28;20286;-75
2024/04/04 13:32:58;;;;;;;1.10;1.10;;;13.10;99.90;;;;;;5011969;28;20550;-74
2024/04/04 13:35:24;;;;;;;1.00;1.00;;;13.00;99.90;;;;;;5010585;28;20477;-75
2024/04/04 13:37:51;;;;;;;0.73;0.73;;;13.00;99.90;;;;;;5008415;28;20504;-76
2024/04/04 13:40:18;;;;;;;0.70;0.70;;;12.80;99.90;;;;;;5011678;28;20481;-76
2024/04/04 13:42:45;;;;;;;1.23;0.70;;;12.70;99.90;;;;;;5007967;28;20470;-76
2024/04/04 13:45:11;;;;;;;0.47;0.47;;;12.60;99.90;;;;;;5010635;28;20473;-76
2024/04/04 13:47:39;;;;;;;2.27;0.50;;;12.60;99.90;;;;;;5016370;28;20569;-76
2024/04/04 13:50:05;;;;;;;1.90;1.90;;;12.50;99.90;;;;;;5020837;28;20210;-74
2024/04/04 13:52:32;;;;;;;1.93;1.77;;;12.40;99.90;;;;;;5017048;28;20464;-76
2024/04/04 13:54:59;;;;;;;4.50;2.83;;;12.40;99.90;;;;;;5019866;28;20485;-75
2024/04/04 13:57:27;;;;;;;1.00;1.00;;;12.40;99.90;;;;;;5017308;28;20513;-75
2024/04/04 13:59:53;;;;;;;2.10;2.00;;;12.30;99.90;;;;;;5017481;28;20482;-74
2024/04/04 14:02:20;;;;;;;2.93;2.83;;;12.30;99.90;;;;;;5015363;28;20537;-74
2024/04/04 14:04:46;;;;;;;2.20;2.20;;;12.40;99.90;;;;;;5019592;28;20960;-74
2024/04/04 14:07:13;;;;;;;2.90;2.80;;;12.40;99.90;;;;;;5015453;28;20469;-73
2024/04/04 14:09:39;;;;;;;1.53;1.50;;;12.40;99.90;;;;;;5010710;28;20496;-73
2024/04/04 14:12:06;;;;;;;2.03;1.97;;;12.50;99.90;;;;;;5018038;28;20564;-75
2024/04/04 14:14:34;;;;;;;2.20;1.97;;;12.60;99.90;;;;;;5016027;28;20487;-73
2024/04/04 14:17:02;;;;;;;2.83;1.40;;;12.70;99.90;;;;;;5018479;28;20476;-74
2024/04/04 14:19:28;;;;;;;2.47;2.33;;;12.70;99.90;;;;;;5019188;28;20492;-74
2024/04/04 14:21:56;;;;;;;1.40;1.40;;;12.70;99.90;;;;;;5019622;28;20524;-74
2024/04/04 14:24:22;;;;;;;2.90;1.23;;;12.60;99.90;;;;;;5005159;28;20466;-74
2024/04/04 14:26:49;;;;;;;1.13;1.13;;;12.60;99.90;;;;;;5017367;28;20545;-74
2024/04/04 14:29:14;;;;;;;1.50;1.50;;;12.60;99.90;;;;;;5016944;28;20238;-73
2024/04/04 14:31:42;;;;;;;1.90;1.90;;;12.60;99.90;;;;;;5008193;28;20461;-74
2024/04/04 14:34:08;;;;;;;1.40;1.10;;;12.60;99.90;;;;;;5014812;28;20233;-74
2024/04/04 14:36:35;;;;;;;3.27;3.03;;;12.60;99.90;;;;;;5017605;28;20985;-74
2024/04/04 14:39:03;;;;;;;1.20;1.03;;;12.60;99.90;;;;;;5015095;28;20242;-75
2024/04/04 14:41:30;;;;;;;2.27;1.10;;;12.50;99.90;;;;;;5023486;28;20660;-75
2024/04/04 14:43:56;;;;;;;3.43;1.60;;;12.50;99.90;;;;;;5021471;28;20878;-71
2024/04/04 14:46:22;;;;;;;2.47;2.37;;;12.40;99.90;;;;;;5028583;28;20524;-76
2024/04/04 14:48:50;;;;;;;1.93;1.83;;;12.40;99.90;;;;;;5026047;28;21028;-74
2024/04/04 14:51:17;;;;;;;0.90;0.90;;;12.40;99.90;;;;;;5025150;28;20676;-74
2024/04/04 14:53:53;;;;;;;1.27;1.27;;;12.40;99.90;;;;;;5026126;28;20489;-75
2024/04/04 14:56:19;;;;;;;0.83;0.83;;;12.40;99.90;;;;;;5022787;28;20479;-73
2024/04/04 14:58:47;;;;;;;0.97;0.97;;;12.30;99.90;;;;;;5023276;28;20473;-73
2024/04/04 15:01:12;;;;;;;1.87;1.77;;;12.30;99.90;;;;;;5023479;28;20976;-74
2024/04/04 15:03:40;;;;;;;1.50;1.37;;;12.20;99.90;;;;;;5023758;28;20467;-74
2024/04/04 15:06:08;;;;;;;1.00;1.00;;;12.30;99.90;;;;;;5021117;28;20203;-74
2024/04/04 15:08:35;;;;;;;1.47;1.47;;;12.30;99.90;;;;;;5022568;28;20521;-74
2024/04/04 15:11:01;;;;;;;0.80;0.80;;;12.40;99.90;;;;;;5021019;28;20475;-75
2024/04/04 15:13:27;;;;;;;2.43;2.23;;;12.50;99.90;;;;;;5023389;28;20486;-76
2024/04/04 15:15:53;;;;;;;1.50;1.50;;;12.70;99.90;;;;;;5019960;28;20465;-76
2024/04/04 15:18:20;;;;;;;1.20;1.10;;;12.70;99.90;;;;;;5023253;28;20493;-76
2024/04/04 15:20:46;;;;;;;0.80;0.80;;;12.70;99.90;;;;;;5026056;28;20215;-75
2024/04/04 15:23:14;;;;;;;3.00;1.70;;;12.60;99.90;;;;;;5025166;28;20468;-73
2024/04/04 15:25:40;;;;;;;0.83;0.83;;;12.60;99.90;;;;;;5031162;28;21387;-73
2024/04/04 15:28:06;;;;;;;1.20;1.00;;;12.40;99.90;;;;;;5029472;28;20491;-74
2024/04/04 15:30:32;;;;;;;1.23;1.00;;;12.30;99.90;;;;;;5022641;28;20213;-73
2024/04/04 15:32:59;;;;;;;0.83;0.83;;;12.30;99.90;;;;;;5024119;28;20964;-73
2024/04/04 15:35:25;;;;;;;0.83;0.83;;;12.30;99.90;;;;;;5018628;28;20233;-75
2024/04/04 15:37:52;;;;;;;2.30;2.10;;;12.20;99.90;;;;;;5029184;28;20498;-74
2024/04/04 15:40:19;;;;;;;1.10;1.10;;;12.20;99.90;;;;;;5028297;28;20587;-75
2024/04/04 15:42:45;;;;;;;7.70;5.30;;;12.20;99.90;;;;;;5026933;28;20906;-72
2024/04/04 15:45:11;;;;;;;1.57;1.57;;;12.20;99.90;;;;;;5026322;28;20465;-75
2024/04/04 15:47:38;;;;;;;0.93;0.93;;;12.30;99.90;;;;;;5021479;28;20468;-75
2024/04/04 15:50:04;;;;;;;5.57;1.70;;;12.40;99.90;;;;;;5017202;28;20582;-74
2024/04/04 15:52:31;;;;;;;3.27;1.50;;;12.50;99.90;;;;;;5022517;28;20470;-75
2024/04/04 15:54:57;;;;;;;1.30;1.30;;;12.60;99.90;;;;;;5026581;28;20492;-75
2024/04/04 15:57:25;;;;;;;1.30;1.30;;;12.60;99.90;;;;;;5026121;28;20476;-75
2024/04/04 15:59:53;;;;;;;1.60;1.50;;;12.60;99.90;;;;;;5014330;28;20861;-75
2024/04/04 16:02:19;;;;;;;1.67;1.60;;;12.70;99.90;;;;;;5017549;28;20477;-72
2024/04/04 16:04:46;;;;;;;2.03;1.67;;;12.70;99.90;;;;;;5023113;28;20489;-75
2024/04/04 16:07:12;;;;;;;1.77;1.67;;;12.80;99.90;;;;;;5027603;28;20475;-75
2024/04/04 16:09:38;;;;;;;4.13;1.70;;;12.90;99.90;;;;;;5025518;28;20489;-75
2024/04/04 16:12:06;;;;;;;1.90;1.80;;;12.90;99.90;;;;;;5025632;28;20492;-75
2024/04/04 16:14:33;;;;;;;2.73;1.73;;;13.00;99.90;;;;;;5017994;28;20230;-74
2024/04/04 16:16:59;;;;;;;4.03;1.43;;;13.10;99.90;;;;;;5024410;28;20465;-71
2024/04/04 16:19:25;;;;;;;1.27;1.27;;;13.20;99.90;;;;;;5022186;28;20513;-73
2024/04/04 16:21:52;;;;;;;2.60;1.60;;;13.30;99.90;;;;;;5021047;28;20465;-72
2024/04/04 16:24:18;;;;;;;11.03;2.80;;;13.40;99.90;;;;;;5021163;28;20203;-75
2024/04/04 16:26:44;;;;;;;6.13;4.30;;;13.50;99.90;;;;;;5025292;28;20457;-75
2024/04/04 16:29:10;;;;;;;1.70;1.70;;;13.50;99.90;;;;;;5020286;28;20489;-74
2024/04/04 16:31:39;;;;;;;6.77;2.83;;;13.40;99.90;;;;;;5020237;28;20982;-76
2024/04/04 16:34:05;;;;;;;2.77;2.57;;;13.40;99.90;;;;;;5013333;28;20550;-73
2024/04/04 16:36:32;;;;;;;1.73;1.43;;;13.30;99.90;;;;;;5020984;28;20465;-71
2024/04/04 16:38:57;;;;;;;1.73;1.30;;;13.20;99.90;;;;;;5022404;28;20238;-74
2024/04/04 16:41:25;;;;;;;2.50;1.53;;;13.20;99.90;;;;;;5018714;28;20509;-73
2024/04/04 16:43:51;;;;;;;3.93;3.10;;;13.10;99.90;;;;;;5023607;28;20227;-75
2024/04/04 16:46:19;;;;;;;1.33;1.33;;;13.10;99.90;;;;;;5014816;28;20994;-75
2024/04/04 16:48:46;;;;;;;1.07;0.77;;;13.10;99.90;;;;;;5019592;28;20222;-75